Time;durP1;ratioP1;P1;durP2;ratioP2;P2;SDS_P1;SDS_P2;PMS_P1;PMS_P2;Temp;Humidity;BMP_temperature;BMP_pressure;BME280_temperature;BME280_humidity;BME280_pressure;Samples;Min_cycle;Max_cycle;Signal;HPM_P1;HPM_P2
2022/01/02 00:02:28;;;;;;;2.20;1.70;;;22.30;40.40;;;;;;5113874;28;20372;-69
2022/01/02 00:05:02;;;;;;;2.60;1.90;;;22.30;40.50;;;;;;5113916;28;20391;-69
2022/01/02 00:07:30;;;;;;;2.27;1.60;;;22.30;40.30;;;;;;5113986;28;20392;-68
2022/01/02 00:10:02;;;;;;;2.10;1.70;;;22.30;40.70;;;;;;5114411;28;20408;-69
2022/01/02 00:12:31;;;;;;;2.10;1.70;;;22.20;40.40;;;;;;5113086;28;20393;-69
2022/01/02 00:14:59;;;;;;;1.90;1.60;;;22.20;40.40;;;;;;5114376;27;20452;-69
2022/01/02 00:17:25;;;;;;;1.92;1.60;;;22.20;40.50;;;;;;5114427;28;20389;-69
2022/01/02 00:19:56;;;;;;;2.40;1.60;;;22.20;40.60;;;;;;5114276;28;20462;-69
2022/01/02 00:22:35;;;;;;;2.33;1.70;;;22.20;40.30;;;;;;5114280;28;20403;-69
2022/01/02 00:25:06;;;;;;;1.80;1.40;;;22.20;40.40;;;;;;5114187;28;20369;-68
2022/01/02 00:27:35;;;;;;;2.45;1.52;;;22.10;40.50;;;;;;5114082;28;20396;-68
2022/01/02 00:30:03;;;;;;;1.98;1.60;;;22.20;40.30;;;;;;5114012;28;20404;-68
2022/01/02 00:32:32;;;;;;;2.27;1.67;;;22.10;40.50;;;;;;5113643;28;20391;-69
2022/01/02 00:34:59;;;;;;;2.40;1.70;;;22.10;40.30;;;;;;5114020;28;20384;-69
2022/01/02 00:37:25;;;;;;;2.08;1.48;;;22.10;40.30;;;;;;5113994;28;20393;-69
2022/01/02 00:39:51;;;;;;;2.10;1.60;;;22.10;40.30;;;;;;5112628;28;20388;-68
2022/01/02 00:42:27;;;;;;;2.00;1.57;;;22.10;40.30;;;;;;5113834;28;20479;-69
2022/01/02 00:45:04;;;;;;;1.98;1.50;;;22.00;40.30;;;;;;5113913;28;20859;-69
2022/01/02 00:47:36;;;;;;;1.73;1.52;;;22.00;40.30;;;;;;5113769;28;20434;-68
2022/01/02 00:50:14;;;;;;;3.00;1.63;;;22.00;40.10;;;;;;5112292;28;20432;-68
2022/01/02 00:52:45;;;;;;;2.92;1.63;;;22.00;40.20;;;;;;5113442;28;20408;-69
2022/01/02 00:55:19;;;;;;;1.70;1.40;;;22.00;40.30;;;;;;5113713;28;20381;-68
2022/01/02 00:57:58;;;;;;;2.53;1.60;;;22.00;40.10;;;;;;5113521;28;20388;-69
2022/01/02 01:00:24;;;;;;;2.07;1.53;;;22.00;40.20;;;;;;5113534;28;20459;-69
2022/01/02 01:02:55;;;;;;;1.80;1.50;;;22.00;40.80;;;;;;5113348;27;20380;-69
2022/01/02 01:05:26;;;;;;;2.35;1.65;;;22.10;41.00;;;;;;5113382;28;20421;-69
2022/01/02 01:07:57;;;;;;;1.98;1.30;;;22.20;41.00;;;;;;5113337;28;20438;-68
2022/01/02 01:10:25;;;;;;;1.75;1.27;;;22.20;40.70;;;;;;5093786;28;20784;-68
2022/01/02 01:12:53;;;;;;;2.22;1.30;;;22.30;40.70;;;;;;5092862;28;20455;-69
2022/01/02 01:15:21;;;;;;;2.70;1.40;;;22.30;40.60;;;;;;5092812;28;20396;-68
2022/01/02 01:17:47;;;;;;;1.90;1.35;;;22.30;40.40;;;;;;5092496;28;20418;-68
2022/01/02 01:20:13;;;;;;;2.55;1.30;;;22.40;40.40;;;;;;5092712;28;20425;-69
2022/01/02 01:22:44;;;;;;;1.88;1.30;;;22.40;40.20;;;;;;5092646;28;20410;-68
2022/01/02 01:25:15;;;;;;;2.63;1.33;;;22.40;40.20;;;;;;5092773;28;20382;-69
2022/01/02 01:27:41;;;;;;;2.15;1.45;;;22.50;40.20;;;;;;5092567;28;20429;-69
2022/01/02 01:30:08;;;;;;;2.45;1.50;;;22.50;40.20;;;;;;5092549;28;20437;-68
2022/01/02 01:32:34;;;;;;;2.42;1.50;;;22.50;40.10;;;;;;5092519;28;20394;-68
2022/01/02 01:34:59;;;;;;;1.93;1.50;;;22.50;40.00;;;;;;5090609;28;20397;-69
2022/01/02 01:37:25;;;;;;;2.20;1.30;;;22.50;40.00;;;;;;5090899;28;20497;-69
2022/01/02 01:39:50;;;;;;;2.00;1.40;;;22.60;40.00;;;;;;5092409;28;20380;-69
2022/01/02 01:42:27;;;;;;;1.80;1.40;;;22.60;40.00;;;;;;5092346;28;20393;-69
2022/01/02 01:45:28;;;;;;;2.20;1.58;;;22.60;40.00;;;;;;5125290;27;20409;-69
2022/01/02 01:47:38;;;;;;;2.25;1.45;;;22.60;40.00;;;;;;5092119;28;20390;-69
2022/01/02 01:50:04;;;;;;;2.17;1.47;;;22.60;39.90;;;;;;5092189;28;20744;-69
2022/01/02 01:52:30;;;;;;;2.00;1.50;;;22.70;40.00;;;;;;5092263;28;20397;-69
2022/01/02 01:54:56;;;;;;;2.13;1.50;;;22.70;39.90;;;;;;5091020;28;20386;-69
2022/01/02 01:57:21;;;;;;;2.22;1.60;;;22.70;39.80;;;;;;5092227;28;20390;-68
2022/01/02 01:59:48;;;;;;;2.30;1.60;;;22.70;39.70;;;;;;5091947;28;20884;-69
2022/01/02 02:02:15;;;;;;;2.30;1.65;;;22.70;39.60;;;;;;5092187;28;20398;-69
2022/01/02 02:04:41;;;;;;;1.90;1.40;;;22.80;39.70;;;;;;5091930;28;20435;-68
2022/01/02 02:07:07;;;;;;;2.00;1.50;;;22.80;39.60;;;;;;5092111;28;20393;-69
2022/01/02 02:09:47;;;;;;;1.90;1.40;;;22.80;39.60;;;;;;5092052;28;20415;-69
2022/01/02 02:12:14;;;;;;;1.85;1.38;;;22.80;39.50;;;;;;5092059;28;20786;-68
2022/01/02 02:14:40;;;;;;;2.20;1.50;;;22.80;39.50;;;;;;5091335;28;20378;-69
2022/01/02 02:17:06;;;;;;;2.70;1.50;;;22.80;39.50;;;;;;5092131;28;20382;-69
2022/01/02 02:19:32;;;;;;;2.70;1.53;;;22.80;39.50;;;;;;5091834;28;20578;-69
2022/01/02 02:21:57;;;;;;;2.30;1.80;;;22.80;39.50;;;;;;5091851;28;20466;-68
2022/01/02 02:24:23;;;;;;;1.90;1.40;;;22.80;39.40;;;;;;5091917;28;20410;-69
2022/01/02 02:26:48;;;;;;;2.43;1.60;;;22.80;39.40;;;;;;5091895;28;20717;-69
2022/01/02 02:29:14;;;;;;;2.15;1.58;;;22.80;39.40;;;;;;5091855;28;20420;-69
2022/01/02 02:31:41;;;;;;;2.20;1.60;;;22.80;39.30;;;;;;5091692;28;20414;-68
2022/01/02 02:34:07;;;;;;;2.13;1.60;;;22.80;39.30;;;;;;5091612;28;20382;-68
2022/01/02 02:36:33;;;;;;;1.92;1.40;;;22.80;39.30;;;;;;5091679;28;20398;-68
2022/01/02 02:38:58;;;;;;;2.38;1.40;;;22.80;39.30;;;;;;5091813;28;20384;-69
2022/01/02 02:41:30;;;;;;;2.10;1.50;;;22.80;39.20;;;;;;5091659;28;20405;-69
2022/01/02 02:44:05;;;;;;;2.40;1.40;;;22.80;39.20;;;;;;5090532;28;20887;-68
2022/01/02 02:49:15;;;;;;;2.08;1.70;;;22.80;39.10;;;;;;5091923;28;20733;-69
2022/01/02 02:51:55;;;;;;;2.47;1.77;;;22.80;39.10;;;;;;5091585;28;20413;-69
2022/01/02 02:54:23;;;;;;;2.03;1.63;;;22.90;39.10;;;;;;5091640;28;20385;-68
2022/01/02 02:59:25;;;;;;;2.25;1.58;;;22.90;39.10;;;;;;5091551;28;20409;-69
2022/01/02 03:01:52;;;;;;;2.23;1.63;;;22.80;39.00;;;;;;5091726;28;20375;-69
2022/01/02 03:04:19;;;;;;;2.28;1.70;;;22.80;39.00;;;;;;5091523;28;20394;-69
2022/01/02 03:06:45;;;;;;;2.17;1.70;;;22.80;39.00;;;;;;5090925;28;20432;-68
2022/01/02 03:09:11;;;;;;;2.40;1.67;;;22.80;38.90;;;;;;5091289;28;20390;-69
2022/01/02 03:11:41;;;;;;;2.55;1.80;;;22.90;38.90;;;;;;5091379;28;20463;-68
2022/01/02 03:14:12;;;;;;;2.17;1.50;;;22.80;38.90;;;;;;5091467;28;20393;-69
2022/01/02 03:16:39;;;;;;;2.20;1.60;;;22.80;38.90;;;;;;5091505;28;20386;-69
2022/01/02 03:19:05;;;;;;;2.25;1.70;;;22.80;38.90;;;;;;5091427;28;20382;-69
2022/01/02 03:21:31;;;;;;;1.98;1.60;;;22.80;38.80;;;;;;5091251;28;20386;-69
2022/01/02 03:23:57;;;;;;;2.57;1.70;;;22.90;38.80;;;;;;5091382;28;20545;-69
2022/01/02 03:26:23;;;;;;;2.40;1.80;;;22.80;38.70;;;;;;5093333;28;20744;-69
2022/01/02 03:28:49;;;;;;;2.20;1.70;;;22.80;38.70;;;;;;5094873;28;20382;-68
2022/01/02 03:31:15;;;;;;;1.98;1.50;;;22.90;38.80;;;;;;5094840;28;20417;-69
2022/01/02 03:33:42;;;;;;;2.27;1.60;;;22.80;38.70;;;;;;5093605;28;20443;-69
2022/01/02 03:36:07;;;;;;;1.98;1.60;;;22.80;38.70;;;;;;5094444;28;20964;-69
2022/01/02 03:38:33;;;;;;;2.67;1.70;;;22.80;38.60;;;;;;5094726;28;20519;-68
2022/01/02 03:40:59;;;;;;;2.13;1.65;;;22.80;38.60;;;;;;5094608;28;20496;-68
2022/01/02 03:43:25;;;;;;;3.60;1.70;;;22.90;38.60;;;;;;5094694;28;20386;-68
2022/01/02 03:45:51;;;;;;;1.70;1.43;;;22.90;38.60;;;;;;5094601;28;20386;-68
2022/01/02 03:48:17;;;;;;;2.75;1.60;;;22.80;38.60;;;;;;5094564;28;20435;-69
2022/01/02 03:50:42;;;;;;;1.75;1.40;;;22.80;38.50;;;;;;5094326;28;20422;-68
2022/01/02 03:53:08;;;;;;;2.40;1.80;;;22.80;38.50;;;;;;5094587;28;20774;-69
2022/01/02 03:55:35;;;;;;;2.05;1.70;;;22.80;38.50;;;;;;5094299;28;20398;-69
2022/01/02 03:58:01;;;;;;;2.30;1.60;;;22.80;38.50;;;;;;5094257;28;20382;-69
2022/01/02 04:00:27;;;;;;;2.03;1.58;;;22.80;38.50;;;;;;5094386;28;20906;-69
2022/01/02 04:02:53;;;;;;;1.88;1.42;;;22.80;38.40;;;;;;5094333;28;20385;-68
2022/01/02 04:05:19;;;;;;;2.67;1.50;;;22.80;38.40;;;;;;5094260;28;20933;-69
2022/01/02 04:07:46;;;;;;;2.00;1.58;;;22.80;38.40;;;;;;5094159;28;20389;-68
2022/01/02 04:10:15;;;;;;;2.30;1.60;;;22.80;38.40;;;;;;5092826;28;20431;-69
2022/01/02 04:12:42;;;;;;;2.33;1.60;;;22.80;38.50;;;;;;5094127;28;20488;-69
2022/01/02 04:15:10;;;;;;;1.60;1.50;;;22.80;38.40;;;;;;5094077;28;20412;-68
2022/01/02 04:17:36;;;;;;;2.00;1.60;;;22.80;38.30;;;;;;5093940;28;20397;-68
2022/01/02 04:20:05;;;;;;;2.60;1.80;;;22.80;38.30;;;;;;5094022;28;20388;-68
2022/01/02 04:22:31;;;;;;;2.00;1.60;;;22.80;38.30;;;;;;5093884;28;20751;-68
2022/01/02 04:24:57;;;;;;;2.30;1.50;;;22.80;38.30;;;;;;5093893;28;20382;-68
2022/01/02 04:27:23;;;;;;;2.03;1.50;;;22.80;38.30;;;;;;5092575;28;20921;-68
2022/01/02 04:29:49;;;;;;;2.67;1.60;;;22.80;38.30;;;;;;5093659;28;20383;-69
2022/01/02 04:32:15;;;;;;;2.30;1.60;;;22.80;38.90;;;;;;5093815;28;20382;-68
2022/01/02 04:34:41;;;;;;;1.70;1.50;;;22.80;38.30;;;;;;5093660;28;20419;-69
2022/01/02 04:37:08;;;;;;;1.80;1.40;;;22.80;38.30;;;;;;5092816;28;20906;-68
2022/01/02 04:39:34;;;;;;;2.07;1.53;;;22.80;38.20;;;;;;5092925;28;20382;-68
2022/01/02 04:42:00;;;;;;;1.90;1.52;;;22.80;38.30;;;;;;5093336;28;20382;-68
2022/01/02 04:44:27;;;;;;;1.90;1.60;;;22.70;38.20;;;;;;5093452;28;20413;-68
2022/01/02 04:46:53;;;;;;;1.80;1.35;;;22.80;38.20;;;;;;5093384;28;20413;-68
2022/01/02 04:49:19;;;;;;;2.00;1.50;;;22.80;38.20;;;;;;5093421;28;20455;-68
2022/01/02 04:51:44;;;;;;;2.35;1.60;;;22.70;38.10;;;;;;5093309;28;20452;-68
2022/01/02 04:54:10;;;;;;;2.03;1.40;;;22.80;38.10;;;;;;5093314;28;20406;-68
2022/01/02 04:56:36;;;;;;;1.97;1.30;;;22.80;38.10;;;;;;5093230;28;20390;-68
2022/01/02 04:59:02;;;;;;;2.40;1.50;;;22.70;38.00;;;;;;5093077;28;20410;-69
2022/01/02 05:01:27;;;;;;;1.95;1.40;;;22.70;38.00;;;;;;5093138;28;20390;-68
2022/01/02 05:03:53;;;;;;;2.20;1.40;;;22.70;38.00;;;;;;5093094;28;20397;-69
2022/01/02 05:06:19;;;;;;;2.07;1.40;;;22.70;37.90;;;;;;5093114;28;20477;-68
2022/01/02 05:08:45;;;;;;;4.00;1.30;;;22.70;37.90;;;;;;5092788;28;20416;-68
2022/01/02 05:11:13;;;;;;;2.10;1.58;;;22.70;38.00;;;;;;5091701;28;20414;-68
2022/01/02 05:13:39;;;;;;;1.77;1.40;;;22.70;37.90;;;;;;5092826;28;20873;-68
2022/01/02 05:16:05;;;;;;;2.22;1.33;;;22.70;37.90;;;;;;5125837;27;20880;-68
2022/01/02 05:18:31;;;;;;;1.70;1.30;;;22.60;37.80;;;;;;5092770;28;20532;-68
2022/01/02 05:20:56;;;;;;;1.85;1.20;;;22.60;37.80;;;;;;5092854;28;20413;-68
2022/01/02 05:23:22;;;;;;;1.67;1.17;;;22.70;37.90;;;;;;5091383;28;20480;-68
2022/01/02 05:25:48;;;;;;;2.33;1.40;;;22.70;37.80;;;;;;5092653;28;20475;-68
2022/01/02 05:28:14;;;;;;;1.70;1.25;;;22.70;37.80;;;;;;5092622;28;20393;-68
2022/01/02 05:30:41;;;;;;;1.75;1.25;;;22.70;37.80;;;;;;5092443;28;20811;-68
2022/01/02 05:33:08;;;;;;;1.65;1.20;;;22.70;37.70;;;;;;5092677;28;20860;-68
2022/01/02 05:35:34;;;;;;;1.50;1.10;;;22.70;37.80;;;;;;5092501;28;20386;-68
2022/01/02 05:38:01;;;;;;;1.60;1.20;;;22.70;37.70;;;;;;5092566;28;20451;-68
2022/01/02 05:40:34;;;;;;;1.98;1.20;;;22.60;37.70;;;;;;5091084;28;20389;-68
2022/01/02 05:43:02;;;;;;;1.50;1.23;;;22.60;37.80;;;;;;5092519;28;20426;-68
2022/01/02 05:45:28;;;;;;;1.73;1.10;;;22.60;37.80;;;;;;5091098;28;20383;-68
2022/01/02 05:47:54;;;;;;;2.17;1.20;;;22.60;37.80;;;;;;5091705;28;20394;-68
2022/01/02 05:50:20;;;;;;;1.60;1.15;;;22.60;37.70;;;;;;5092192;28;20398;-68
2022/01/02 05:52:45;;;;;;;2.13;1.10;;;22.50;37.70;;;;;;5092308;28;20390;-68
2022/01/02 05:55:11;;;;;;;1.48;1.15;;;22.60;37.70;;;;;;5090953;28;20381;-68
2022/01/02 05:57:37;;;;;;;1.70;1.20;;;22.60;37.60;;;;;;5092179;28;20386;-68
2022/01/02 06:00:04;;;;;;;1.58;1.10;;;22.60;37.60;;;;;;5091982;28;20775;-69
2022/01/02 06:02:31;;;;;;;2.45;1.10;;;22.60;37.60;;;;;;5092136;28;20386;-68
2022/01/02 06:04:58;;;;;;;2.90;1.10;;;22.60;38.30;;;;;;5091955;28;20451;-67
2022/01/02 06:07:23;;;;;;;3.00;1.10;;;22.60;37.70;;;;;;5092083;28;20397;-68
2022/01/02 06:09:49;;;;;;;3.90;1.00;;;22.50;37.50;;;;;;5092103;28;20375;-68
2022/01/02 06:12:15;;;;;;;2.28;1.20;;;22.60;37.30;;;;;;5091922;28;20452;-68
2022/01/02 06:14:40;;;;;;;3.43;1.00;;;22.70;37.70;;;;;;5091594;28;20817;-68
2022/01/02 06:17:06;;;;;;;3.75;1.30;;;22.60;37.80;;;;;;5090740;28;20905;-68
2022/01/02 06:19:31;;;;;;;4.38;1.40;;;22.60;38.20;;;;;;5091101;28;20469;-68
2022/01/02 06:21:57;;;;;;;7.87;1.50;;;22.70;39.00;;;;;;5092037;28;20382;-68
2022/01/02 06:24:23;;;;;;;4.22;1.25;;;22.70;38.90;;;;;;5091886;28;20752;-68
2022/01/02 06:26:48;;;;;;;5.30;1.40;;;22.70;39.10;;;;;;5090394;28;20405;-68
2022/01/02 06:29:14;;;;;;;4.55;1.30;;;22.70;38.90;;;;;;5091771;28;20879;-69
2022/01/02 06:31:39;;;;;;;4.97;1.30;;;22.80;39.40;;;;;;5092019;28;20418;-69
2022/01/02 06:34:05;;;;;;;5.20;1.30;;;22.80;39.60;;;;;;5091845;28;20379;-68
2022/01/02 06:36:31;;;;;;;5.70;1.00;;;22.80;39.40;;;;;;5091784;28;20389;-69
2022/01/02 06:38:56;;;;;;;4.80;1.13;;;22.90;39.60;;;;;;5090747;28;20390;-68
2022/01/02 06:41:22;;;;;;;4.32;1.20;;;22.90;39.50;;;;;;5091559;28;20413;-68
2022/01/02 06:43:52;;;;;;;3.90;1.00;;;22.80;39.50;;;;;;5091556;28;20743;-68
2022/01/02 06:46:19;;;;;;;4.67;1.23;;;22.80;40.40;;;;;;5091971;28;20439;-69
2022/01/02 06:48:45;;;;;;;6.05;1.10;;;22.90;40.50;;;;;;5091540;28;20439;-69
2022/01/02 06:51:11;;;;;;;4.97;1.20;;;22.90;40.70;;;;;;5091631;28;20470;-68
2022/01/02 06:53:36;;;;;;;4.15;1.10;;;23.00;40.90;;;;;;5091729;28;20793;-68
2022/01/02 06:56:03;;;;;;;3.63;1.10;;;22.90;40.90;;;;;;5091558;28;20414;-68
2022/01/02 06:58:28;;;;;;;6.07;1.00;;;23.00;40.90;;;;;;5091151;28;20555;-69
2022/01/02 07:00:56;;;;;;;2.40;1.10;;;23.00;41.20;;;;;;5093764;28;20493;-70
2022/01/02 07:03:22;;;;;;;2.67;1.10;;;23.00;41.00;;;;;;5095392;28;20461;-68
2022/01/02 07:05:47;;;;;;;4.20;1.00;;;23.10;41.10;;;;;;5095408;28;20851;-68
2022/01/02 07:08:13;;;;;;;3.23;0.93;;;23.10;41.00;;;;;;5094927;28;20519;-68
2022/01/02 07:10:39;;;;;;;2.75;0.95;;;23.10;40.70;;;;;;5113852;28;20483;-69
2022/01/02 07:13:04;;;;;;;6.03;1.10;;;23.10;40.70;;;;;;5113539;28;20393;-69
2022/01/02 07:15:30;;;;;;;5.17;1.03;;;23.10;40.60;;;;;;5113858;28;20381;-69
2022/01/02 07:17:56;;;;;;;4.57;1.10;;;23.10;40.30;;;;;;5113841;28;20518;-68
2022/01/02 07:20:21;;;;;;;6.18;1.77;;;23.10;40.40;;;;;;5114437;28;20860;-67
2022/01/02 07:22:47;;;;;;;6.67;1.50;;;23.00;39.60;;;;;;5114498;28;20928;-67
2022/01/02 07:25:13;;;;;;;4.68;1.80;;;22.90;38.10;;;;;;5114725;28;20938;-69
2022/01/02 07:27:39;;;;;;;4.57;1.50;;;22.80;37.70;;;;;;5114620;28;20412;-68
2022/01/02 07:30:06;;;;;;;4.32;1.48;;;22.80;37.90;;;;;;5114777;28;20391;-66
2022/01/02 07:32:31;;;;;;;4.00;1.45;;;22.80;38.00;;;;;;5114854;28;20393;-67
2022/01/02 07:34:57;;;;;;;3.70;1.20;;;22.70;38.10;;;;;;5114736;28;20376;-67
2022/01/02 07:37:23;;;;;;;3.72;1.50;;;22.70;38.20;;;;;;5113427;28;20396;-66
2022/01/02 07:39:49;;;;;;;2.63;1.47;;;22.60;38.90;;;;;;5113062;28;20387;-68
2022/01/02 07:42:14;;;;;;;3.45;1.40;;;22.60;38.80;;;;;;5113332;28;20479;-68
2022/01/02 07:44:40;;;;;;;4.53;1.33;;;22.60;38.40;;;;;;5114228;28;20381;-67
2022/01/02 07:47:06;;;;;;;2.70;1.40;;;22.60;38.50;;;;;;5112999;28;20438;-67
2022/01/02 07:49:32;;;;;;;3.22;1.20;;;22.60;38.30;;;;;;5114501;28;20381;-67
2022/01/02 07:51:58;;;;;;;3.90;1.33;;;22.60;38.60;;;;;;5114582;27;20485;-67
2022/01/02 07:54:23;;;;;;;2.50;1.10;;;22.60;38.30;;;;;;5114263;28;20381;-67
2022/01/02 07:56:49;;;;;;;2.97;1.20;;;22.60;38.40;;;;;;5113410;28;20948;-67
2022/01/02 07:59:15;;;;;;;4.53;1.30;;;22.60;38.30;;;;;;5114102;28;20404;-67
2022/01/02 08:01:40;;;;;;;3.00;1.10;;;22.60;38.90;;;;;;5112167;28;20388;-68
2022/01/02 08:04:06;;;;;;;3.33;1.15;;;22.70;38.90;;;;;;5103995;28;20447;-68
2022/01/02 08:06:32;;;;;;;2.20;1.20;;;22.70;38.20;;;;;;5087265;28;20394;-67
2022/01/02 08:08:58;;;;;;;3.38;1.20;;;22.70;38.10;;;;;;5091985;28;20393;-68
2022/01/02 08:11:23;;;;;;;5.67;1.20;;;22.70;38.10;;;;;;5111404;28;20431;-67
2022/01/02 08:13:49;;;;;;;2.35;1.10;;;22.70;38.00;;;;;;5113474;28;20463;-68
2022/01/02 08:16:14;;;;;;;3.43;1.10;;;22.70;38.10;;;;;;5113774;28;20460;-68
2022/01/02 08:18:41;;;;;;;2.13;1.10;;;22.70;38.00;;;;;;5112652;28;20395;-69
2022/01/02 08:21:07;;;;;;;3.55;1.40;;;22.80;38.10;;;;;;5114226;28;20388;-68
2022/01/02 08:23:33;;;;;;;2.67;1.20;;;22.80;38.10;;;;;;5113804;28;20392;-69
2022/01/02 08:25:59;;;;;;;5.38;1.40;;;22.70;38.00;;;;;;5112068;28;20754;-68
2022/01/02 08:28:25;;;;;;;8.20;1.73;;;22.80;37.80;;;;;;5112147;28;20955;-68
2022/01/02 08:30:50;;;;;;;6.45;1.38;;;22.70;38.40;;;;;;5113652;28;20396;-69
2022/01/02 08:33:17;;;;;;;4.17;1.20;;;22.70;38.20;;;;;;5113504;27;20804;-68
2022/01/02 08:35:44;;;;;;;4.57;1.40;;;22.70;38.00;;;;;;5113402;28;20470;-68
2022/01/02 08:38:10;;;;;;;3.63;1.58;;;22.70;37.60;;;;;;5112313;28;20394;-68
2022/01/02 08:40:38;;;;;;;5.70;1.33;;;22.80;37.80;;;;;;5113286;28;20779;-68
2022/01/02 08:43:03;;;;;;;3.50;1.20;;;22.80;37.80;;;;;;5112091;28;20507;-68
2022/01/02 08:45:29;;;;;;;3.43;1.30;;;22.80;37.70;;;;;;5113425;28;20924;-68
2022/01/02 08:47:55;;;;;;;4.13;1.20;;;22.90;37.60;;;;;;5113368;28;20471;-68
2022/01/02 08:50:20;;;;;;;3.63;1.30;;;22.90;37.50;;;;;;5111897;28;20491;-68
2022/01/02 08:52:46;;;;;;;4.20;1.30;;;22.90;37.40;;;;;;5112982;28;20407;-68
2022/01/02 08:55:12;;;;;;;3.50;1.20;;;23.00;37.40;;;;;;5112660;28;20389;-68
2022/01/02 08:57:38;;;;;;;2.05;1.10;;;23.00;37.30;;;;;;5111627;28;20392;-68
2022/01/02 09:00:05;;;;;;;2.58;1.20;;;23.10;37.20;;;;;;5112992;28;20396;-68
2022/01/02 09:02:30;;;;;;;3.63;1.42;;;23.10;37.20;;;;;;5112856;28;20441;-68
2022/01/02 09:04:56;;;;;;;2.95;1.23;;;23.20;37.10;;;;;;5113072;28;20380;-68
2022/01/02 09:07:22;;;;;;;1.90;1.27;;;23.20;37.10;;;;;;5112656;28;20488;-68
2022/01/02 09:09:47;;;;;;;3.60;1.20;;;23.20;36.90;;;;;;5112928;28;20380;-68
2022/01/02 09:12:14;;;;;;;2.67;1.10;;;23.30;37.10;;;;;;5111511;28;20990;-68
2022/01/02 09:14:41;;;;;;;2.25;1.30;;;23.30;37.00;;;;;;5112851;28;20386;-69
2022/01/02 09:17:07;;;;;;;1.80;1.20;;;23.30;36.80;;;;;;5108145;28;20438;-68
2022/01/02 09:19:33;;;;;;;2.42;1.30;;;23.30;36.80;;;;;;5109308;27;20380;-68
2022/01/02 09:21:59;;;;;;;3.47;1.30;;;23.30;36.70;;;;;;5119459;27;20399;-68
2022/01/02 09:24:24;;;;;;;2.60;1.20;;;23.20;37.00;;;;;;5117246;27;20396;-68
2022/01/02 09:26:50;;;;;;;2.47;1.40;;;23.20;37.10;;;;;;5117159;27;20479;-68
2022/01/02 09:29:15;;;;;;;3.00;1.30;;;23.30;37.30;;;;;;5112243;28;20498;-68
2022/01/02 09:31:41;;;;;;;2.70;1.47;;;23.30;37.40;;;;;;5112083;28;20911;-69
2022/01/02 09:34:07;;;;;;;2.55;1.30;;;23.30;37.20;;;;;;5113006;28;20376;-68
2022/01/02 09:36:33;;;;;;;2.05;1.30;;;23.30;37.00;;;;;;5110559;28;20766;-69
2022/01/02 09:38:58;;;;;;;1.67;1.30;;;23.30;36.80;;;;;;5114006;27;20407;-68
2022/01/02 09:41:24;;;;;;;2.50;1.17;;;23.30;36.80;;;;;;5111978;28;20388;-68
2022/01/02 09:43:50;;;;;;;1.73;1.20;;;23.20;36.90;;;;;;5111139;28;20746;-68
2022/01/02 09:46:24;;;;;;;2.70;1.38;;;23.30;36.90;;;;;;5109733;28;20388;-69
2022/01/02 09:48:51;;;;;;;2.03;1.15;;;23.40;36.90;;;;;;5111528;28;20380;-68
2022/01/02 09:51:20;;;;;;;3.05;1.30;;;23.40;36.80;;;;;;5112281;28;20411;-68
2022/01/02 09:53:47;;;;;;;1.85;1.20;;;23.40;36.70;;;;;;5109805;28;20381;-68
2022/01/02 09:56:14;;;;;;;2.42;1.30;;;23.30;36.60;;;;;;5109042;28;20392;-68
2022/01/02 09:58:42;;;;;;;1.75;1.23;;;23.30;36.70;;;;;;5109582;28;20449;-68
2022/01/02 10:01:14;;;;;;;1.90;1.15;;;23.30;36.60;;;;;;5111902;28;20397;-68
2022/01/02 10:03:44;;;;;;;2.17;1.25;;;23.30;36.70;;;;;;5110039;28;20408;-68
2022/01/02 10:06:10;;;;;;;1.70;1.10;;;23.30;36.60;;;;;;5112071;28;20407;-69
2022/01/02 10:08:37;;;;;;;1.63;1.07;;;23.30;36.60;;;;;;5111883;28;20490;-68
2022/01/02 10:11:06;;;;;;;1.93;1.10;;;23.40;36.60;;;;;;5109452;28;20585;-68
2022/01/02 10:13:47;;;;;;;2.20;1.20;;;23.30;36.40;;;;;;5109224;28;20393;-69
2022/01/02 10:16:28;;;;;;;2.08;1.10;;;23.40;36.40;;;;;;5112158;28;21049;-68
2022/01/02 10:18:55;;;;;;;2.00;1.20;;;23.40;36.40;;;;;;5112365;28;20380;-68
2022/01/02 10:21:37;;;;;;;1.77;1.00;;;23.40;36.60;;;;;;5111914;28;20442;-68
2022/01/02 10:24:21;;;;;;;1.55;1.13;;;23.40;36.60;;;;;;5112015;28;20891;-68
2022/01/02 10:27:10;;;;;;;1.80;1.00;;;23.30;36.40;;;;;;5112098;28;20402;-68
2022/01/02 10:29:50;;;;;;;1.92;1.10;;;23.40;36.40;;;;;;5110697;28;20380;-69
2022/01/02 10:32:33;;;;;;;1.92;1.10;;;23.40;36.50;;;;;;5112165;28;20880;-68
2022/01/02 10:35:21;;;;;;;1.80;1.10;;;23.40;36.90;;;;;;5122324;27;20735;-68
2022/01/02 10:37:55;;;;;;;2.10;1.00;;;23.40;36.40;;;;;;5136691;27;20875;-68
2022/01/02 10:40:30;;;;;;;2.00;0.98;;;23.40;36.40;;;;;;5136752;27;20382;-68
2022/01/02 10:42:56;;;;;;;1.30;0.90;;;23.40;36.50;;;;;;5136793;27;20386;-67
2022/01/02 10:45:37;;;;;;;1.40;0.90;;;23.40;36.40;;;;;;5136636;27;20378;-68
2022/01/02 10:48:06;;;;;;;1.75;1.00;;;23.40;36.60;;;;;;5136867;27;20428;-68
2022/01/02 10:50:32;;;;;;;2.70;1.10;;;23.40;36.60;;;;;;5135038;27;20467;-67
2022/01/02 10:53:17;;;;;;;2.30;1.10;;;23.40;36.80;;;;;;5135512;27;20382;-67
2022/01/02 10:55:45;;;;;;;2.13;1.08;;;23.40;37.10;;;;;;5117651;27;20412;-67
2022/01/02 10:58:11;;;;;;;2.00;1.00;;;23.30;37.20;;;;;;5114572;28;20384;-67
2022/01/02 11:00:38;;;;;;;2.20;1.10;;;23.30;37.10;;;;;;5114619;27;20395;-67
2022/01/02 11:03:06;;;;;;;1.85;1.00;;;23.30;37.10;;;;;;5112715;28;20396;-67
2022/01/02 11:05:33;;;;;;;2.35;1.00;;;23.30;37.50;;;;;;5114374;28;20415;-67
2022/01/02 11:08:00;;;;;;;1.70;0.90;;;23.30;37.70;;;;;;5114689;28;20384;-68
2022/01/02 11:10:28;;;;;;;1.90;1.05;;;23.30;37.60;;;;;;5114768;28;20482;-68
2022/01/02 11:12:55;;;;;;;3.15;1.10;;;23.30;37.30;;;;;;5114508;28;20392;-68
2022/01/02 11:15:23;;;;;;;6.15;1.13;;;23.30;36.30;;;;;;5115539;28;20455;-68
2022/01/02 11:17:50;;;;;;;6.50;1.10;;;23.20;34.70;;;;;;5115489;28;20425;-68
2022/01/02 11:20:23;;;;;;;7.43;1.13;;;23.20;36.10;;;;;;5115349;28;20753;-67
2022/01/02 11:23:07;;;;;;;7.13;1.23;;;23.20;36.30;;;;;;5114400;28;20400;-67
2022/01/02 11:25:41;;;;;;;4.97;1.02;;;23.30;36.20;;;;;;5114158;28;20473;-68
2022/01/02 11:28:33;;;;;;;7.93;1.58;;;23.50;38.00;;;;;;5113006;28;20385;-68
2022/01/02 11:30:59;;;;;;;6.72;1.80;;;23.80;36.80;;;;;;5103457;28;20465;-69
2022/01/02 11:33:33;;;;;;;7.65;1.75;;;24.00;36.50;;;;;;5113986;28;20385;-68
2022/01/02 11:36:02;;;;;;;8.27;1.80;;;24.10;36.70;;;;;;5115046;28;20542;-69
2022/01/02 11:38:43;;;;;;;6.13;1.75;;;24.20;36.50;;;;;;5115209;28;20392;-69
2022/01/02 11:41:09;;;;;;;8.20;1.70;;;24.40;36.80;;;;;;5115364;28;20392;-69
2022/01/02 11:43:35;;;;;;;6.93;1.65;;;24.40;36.90;;;;;;5114935;28;20380;-69
2022/01/02 11:46:31;;;;;;;7.07;1.50;;;24.50;36.70;;;;;;5113778;28;20888;-69
2022/01/02 11:49:08;;;;;;;6.53;1.40;;;24.60;37.00;;;;;;5113408;28;20463;-69
2022/01/02 11:51:51;;;;;;;6.88;1.30;;;24.70;36.60;;;;;;5114729;28;20761;-69
2022/01/02 11:54:29;;;;;;;4.35;1.40;;;24.80;37.20;;;;;;5114733;28;20858;-69
2022/01/02 11:57:04;;;;;;;7.43;1.20;;;24.80;36.40;;;;;;5114284;28;20388;-68
2022/01/02 11:59:38;;;;;;;7.47;1.60;;;24.90;36.80;;;;;;5114422;28;20435;-68
2022/01/02 12:02:23;;;;;;;6.28;1.42;;;24.90;36.70;;;;;;5114326;28;20381;-69
2022/01/02 12:10:24;;;;;;;5.28;1.33;;;24.90;36.30;;;;;;5113093;28;20885;-69
2022/01/02 12:13:10;;;;;;;6.43;1.45;;;24.90;36.50;;;;;;5113279;28;20396;-69
2022/01/02 12:15:39;;;;;;;10.65;1.60;;;24.80;36.20;;;;;;5111498;28;20372;-69
2022/01/02 12:18:16;;;;;;;12.88;1.65;;;24.80;36.40;;;;;;5112596;28;20461;-69
2022/01/02 12:20:56;;;;;;;11.43;1.77;;;24.80;36.20;;;;;;5112270;28;20472;-69
2022/01/02 12:23:33;;;;;;;5.65;1.40;;;24.80;36.00;;;;;;5114418;28;20467;-68
2022/01/02 12:26:00;;;;;;;5.45;1.50;;;24.80;36.00;;;;;;5114303;28;20384;-69
2022/01/02 12:28:28;;;;;;;6.82;1.40;;;24.80;36.10;;;;;;5113958;28;20821;-68
2022/01/02 12:30:56;;;;;;;5.13;1.60;;;24.80;35.90;;;;;;5113905;28;20490;-69
2022/01/02 12:33:27;;;;;;;5.78;1.40;;;24.80;36.00;;;;;;5112868;28;20396;-69
2022/01/02 12:35:53;;;;;;;5.20;1.40;;;24.70;35.90;;;;;;5114475;28;20387;-68
2022/01/02 12:38:19;;;;;;;6.47;1.40;;;24.70;35.90;;;;;;5113973;28;20461;-69
2022/01/02 12:40:46;;;;;;;8.48;1.50;;;24.70;36.00;;;;;;5113890;28;20518;-68
2022/01/02 12:43:12;;;;;;;5.00;1.35;;;24.70;36.00;;;;;;5113606;28;20389;-68
2022/01/02 12:45:38;;;;;;;4.73;1.43;;;24.70;35.90;;;;;;5113865;28;20380;-69
2022/01/02 12:48:04;;;;;;;2.92;1.30;;;24.70;35.90;;;;;;5113617;28;20403;-69
2022/01/02 12:50:31;;;;;;;4.18;1.40;;;24.60;35.90;;;;;;5113781;28;20404;-69
2022/01/02 12:52:59;;;;;;;7.70;1.63;;;24.60;35.90;;;;;;5113732;28;20388;-68
2022/01/02 12:55:29;;;;;;;7.57;1.50;;;24.50;34.50;;;;;;5113182;28;20403;-69
2022/01/02 12:58:06;;;;;;;7.10;1.33;;;24.50;33.80;;;;;;5104435;28;20404;-68
2022/01/02 13:00:32;;;;;;;6.65;1.42;;;24.50;34.30;;;;;;5111184;28;20471;-69
2022/01/02 13:02:58;;;;;;;5.43;1.40;;;24.50;34.70;;;;;;5112130;28;20376;-68